createdAt,value
2023-04-16T00:01:20.240Z,78.39
2023-04-16T00:03:49.197Z,79.28
2023-04-16T00:06:17.853Z,79.75
2023-04-16T00:08:47.595Z,80.59
2023-04-16T00:11:15.906Z,81.22
2023-04-16T00:13:45.127Z,81.25
2023-04-16T00:16:14.871Z,81.53
2023-04-16T00:18:44.561Z,81.44
2023-04-16T00:21:13.189Z,80.80
2023-04-16T00:23:41.454Z,81.50
2023-04-16T00:26:10.027Z,82.34
2023-04-16T00:28:39.684Z,82.55
2023-04-16T00:31:08.024Z,82.67
2023-04-16T00:33:38.083Z,83.01
2023-04-16T00:36:07.466Z,82.96
2023-04-16T00:38:36.607Z,83.07
2023-04-16T00:41:05.410Z,83.46
2023-04-16T00:43:34.860Z,83.63
2023-04-16T00:46:07.681Z,83.11
2023-04-16T00:48:39.083Z,83.24
2023-04-16T00:51:09.188Z,83.45
2023-04-16T00:53:37.933Z,83.56
2023-04-16T00:56:08.264Z,83.72
2023-04-16T00:58:37.026Z,84.13
2023-04-16T01:01:05.698Z,84.52
2023-04-16T01:03:41.520Z,84.50
2023-04-16T01:06:10.464Z,84.60
2023-04-16T01:08:39.264Z,84.60
2023-04-16T01:11:07.958Z,84.14
2023-04-16T01:13:39.290Z,83.99
2023-04-16T01:16:08.714Z,84.13
2023-04-16T01:18:38.975Z,84.43
2023-04-16T01:21:08.588Z,84.65
2023-04-16T01:23:36.928Z,84.64
2023-04-16T01:26:05.306Z,84.59
2023-04-16T01:28:33.389Z,84.34
2023-04-16T01:31:01.721Z,84.93
2023-04-16T01:33:41.912Z,84.50
2023-04-16T01:36:13.174Z,84.64
2023-04-16T01:38:41.371Z,85.16
2023-04-16T01:41:09.489Z,84.52
2023-04-16T01:43:40.031Z,84.27
2023-04-16T01:46:19.059Z,85.21
2023-04-16T01:48:47.753Z,84.55
2023-04-16T01:51:17.229Z,84.52
2023-04-16T01:53:46.440Z,84.02
2023-04-16T01:56:14.494Z,83.66
2023-04-16T01:58:43.504Z,83.60
2023-04-16T02:01:11.802Z,83.20
2023-04-16T02:03:40.960Z,83.76
2023-04-16T02:06:09.323Z,83.67
2023-04-16T02:08:38.754Z,83.88
2023-04-16T02:11:07.042Z,84.08
2023-04-16T02:13:35.732Z,84.38
2023-04-16T02:16:04.299Z,84.20
2023-04-16T02:18:58.802Z,84.32
2023-04-16T02:21:29.410Z,83.59
2023-04-16T02:23:58.893Z,83.81
2023-04-16T02:26:30.037Z,84.06
2023-04-16T02:29:03.565Z,83.62
2023-04-16T02:31:39.355Z,84.29
2023-04-16T02:34:08.714Z,84.02
2023-04-16T02:36:36.759Z,83.88
2023-04-16T02:39:06.686Z,83.64
2023-04-16T02:41:35.003Z,83.90
2023-04-16T02:44:03.107Z,83.78
2023-04-16T02:46:31.244Z,84.01
2023-04-16T02:48:59.490Z,83.84
2023-04-16T02:51:27.710Z,83.70
2023-04-16T02:53:55.810Z,83.60
2023-04-16T02:56:25.279Z,83.97
2023-04-16T02:58:53.484Z,84.23
2023-04-16T03:01:21.591Z,84.37
2023-04-16T03:03:49.713Z,84.50
2023-04-16T03:06:17.859Z,84.86
2023-04-16T03:08:45.937Z,84.53
2023-04-16T03:11:14.013Z,84.60
2023-04-16T03:13:43.480Z,84.56
2023-04-16T03:16:11.825Z,84.24
2023-04-16T03:18:40.264Z,84.51
2023-04-16T03:21:08.344Z,84.58
2023-04-16T03:23:38.911Z,84.63
2023-04-16T03:26:07.047Z,84.69
2023-04-16T03:28:35.356Z,84.49
2023-04-16T03:31:05.290Z,83.92
2023-04-16T03:33:33.474Z,84.47
2023-04-16T03:36:01.782Z,84.79
2023-04-16T03:38:32.212Z,84.55
2023-04-16T03:41:00.969Z,84.56
2023-04-16T03:43:31.119Z,84.59
2023-04-16T03:45:59.428Z,84.05
2023-04-16T03:48:29.026Z,84.39
2023-04-16T03:50:57.138Z,84.56
2023-04-16T03:53:25.392Z,84.43
2023-04-16T03:55:53.938Z,84.26
2023-04-16T03:58:22.955Z,85.09
2023-04-16T04:00:56.770Z,85.43
2023-04-16T04:03:26.383Z,85.22
2023-04-16T04:05:57.264Z,85.06
2023-04-16T04:08:29.317Z,85.33
2023-04-16T04:10:57.504Z,85.64
2023-04-16T04:13:26.883Z,85.38
2023-04-16T04:15:55.459Z,85.48
2023-04-16T04:18:24.684Z,85.21
2023-04-16T04:20:53.173Z,85.25
2023-04-16T04:23:26.209Z,85.04
2023-04-16T04:25:54.304Z,85.48
2023-04-16T04:28:22.501Z,85.78
2023-04-16T04:30:50.593Z,86.14
2023-04-16T04:33:19.785Z,86.61
2023-04-16T04:35:49.193Z,86.77
2023-04-16T04:38:19.789Z,86.49
2023-04-16T04:40:49.395Z,86.50
2023-04-16T04:43:19.468Z,86.90
2023-04-16T04:45:49.069Z,87.18
2023-04-16T04:48:17.892Z,86.65
2023-04-16T04:50:47.169Z,86.22
2023-04-16T04:53:15.526Z,86.66
2023-04-16T04:55:44.330Z,86.47
2023-04-16T04:58:13.763Z,86.26
2023-04-16T05:00:43.901Z,86.09
2023-04-16T05:03:13.365Z,86.12
2023-04-16T05:05:41.994Z,85.87
2023-04-16T05:08:10.082Z,86.27
2023-04-16T05:10:39.894Z,86.33
2023-04-16T05:13:07.997Z,85.49
2023-04-16T05:15:37.806Z,85.80
2023-04-16T05:18:06.187Z,86.01
2023-04-16T05:20:38.080Z,86.17
2023-04-16T05:23:06.208Z,85.71
2023-04-16T05:25:34.512Z,85.91
2023-04-16T05:28:02.553Z,85.38
2023-04-16T05:30:30.707Z,85.33
2023-04-16T05:33:00.270Z,85.19
2023-04-16T05:35:28.721Z,85.40
2023-04-16T05:37:56.824Z,85.54
2023-04-16T05:40:24.871Z,85.79
2023-04-16T05:42:52.932Z,85.83
2023-04-16T05:45:21.213Z,85.11
2023-04-16T05:47:49.329Z,84.53
2023-04-16T05:50:18.884Z,85.52
2023-04-16T05:52:46.932Z,85.40
2023-04-16T05:55:15.042Z,85.21
2023-04-16T05:57:43.306Z,85.48
2023-04-16T06:00:12.208Z,85.67
2023-04-16T06:02:40.502Z,85.04
2023-04-16T06:05:10.415Z,85.81
2023-04-16T06:07:39.821Z,85.70
2023-04-16T06:10:08.974Z,85.61
2023-04-16T06:12:37.156Z,84.98
2023-04-16T06:15:06.665Z,84.81
2023-04-16T06:17:34.800Z,84.81
2023-04-16T06:20:05.522Z,85.36
2023-04-16T06:22:33.623Z,85.50
2023-04-16T06:25:03.043Z,85.79
2023-04-16T06:27:32.873Z,84.87
2023-04-16T06:30:00.950Z,85.95
2023-04-16T06:32:29.224Z,85.27
2023-04-16T06:34:58.671Z,85.02
2023-04-16T06:37:26.798Z,85.47
2023-04-16T06:39:54.888Z,85.29
2023-04-16T06:42:24.860Z,84.85
2023-04-16T06:44:53.023Z,85.48
2023-04-16T06:47:21.135Z,85.13
2023-04-16T06:49:49.213Z,85.00
2023-04-16T06:52:17.408Z,85.49
2023-04-16T06:54:45.427Z,85.32
2023-04-16T06:57:13.543Z,85.70
2023-04-16T06:59:43.060Z,85.22
2023-04-16T07:02:12.308Z,84.80
2023-04-16T07:04:40.622Z,84.54
2023-04-16T07:07:09.994Z,84.33
2023-04-16T07:09:38.078Z,84.53
2023-04-16T07:12:07.048Z,85.13
2023-04-16T07:14:35.191Z,85.03
2023-04-16T07:17:04.735Z,84.54
2023-04-16T07:19:52.969Z,84.54
2023-04-16T07:22:21.346Z,84.65
2023-04-16T07:24:49.459Z,84.80
2023-04-16T07:27:17.869Z,84.65
2023-04-16T07:29:46.602Z,83.91
2023-04-16T07:32:16.201Z,83.89
2023-04-16T07:34:44.321Z,83.08
2023-04-16T07:37:12.574Z,83.28
2023-04-16T07:39:40.664Z,83.77
2023-04-16T07:42:08.807Z,83.77
2023-04-16T07:44:36.969Z,83.20
2023-04-16T07:47:05.794Z,83.44
2023-04-16T07:49:35.500Z,83.13
2023-04-16T07:52:03.630Z,83.19
2023-04-16T07:54:31.720Z,82.95
2023-04-16T07:56:59.817Z,82.21
2023-04-16T07:59:28.085Z,81.66
2023-04-16T08:01:56.501Z,81.56
2023-04-16T08:04:25.890Z,81.65
2023-04-16T08:06:56.158Z,82.32
2023-04-16T08:09:28.525Z,82.58
2023-04-16T08:11:56.931Z,82.55
2023-04-16T08:14:25.071Z,82.43
2023-04-16T08:16:53.150Z,82.86
2023-04-16T08:19:21.283Z,82.99
2023-04-16T08:21:49.396Z,82.66
2023-04-16T08:24:18.839Z,82.52
2023-04-16T08:26:47.044Z,81.69
2023-04-16T08:29:15.139Z,80.97
2023-04-16T08:31:43.742Z,81.76
2023-04-16T08:34:12.505Z,81.91
2023-04-16T08:36:41.422Z,81.93
2023-04-16T08:39:11.570Z,81.58
2023-04-16T08:41:48.006Z,81.29
2023-04-16T08:44:22.291Z,80.57
2023-04-16T08:46:52.447Z,80.56
2023-04-16T08:49:20.772Z,81.88
2023-04-16T08:51:53.103Z,81.02
2023-04-16T08:54:35.757Z,81.07
2023-04-16T08:57:11.723Z,80.13
2023-04-16T08:59:41.124Z,80.27
2023-04-16T09:02:13.820Z,80.44
2023-04-16T09:04:46.033Z,80.99
2023-04-16T09:07:14.592Z,80.86
2023-04-16T09:09:46.369Z,80.81
2023-04-16T09:12:16.430Z,80.44
2023-04-16T09:14:44.699Z,79.95
2023-04-16T09:17:14.455Z,79.76
2023-04-16T09:19:44.706Z,80.19
2023-04-16T09:22:13.105Z,79.67
2023-04-16T09:24:41.938Z,80.15
2023-04-16T09:27:13.649Z,80.79
2023-04-16T09:29:44.251Z,79.95
2023-04-16T09:32:13.170Z,79.63
2023-04-16T09:35:01.770Z,79.09
2023-04-16T09:37:31.532Z,78.66
2023-04-16T09:40:02.008Z,78.21
2023-04-16T09:42:32.706Z,78.85
2023-04-16T09:45:05.550Z,78.73
2023-04-16T09:47:42.312Z,78.77
2023-04-16T09:50:18.215Z,78.17
2023-04-16T09:52:49.899Z,77.73
2023-04-16T09:55:23.232Z,77.68
2023-04-16T09:58:00.926Z,77.64
2023-04-16T10:00:31.795Z,78.12
2023-04-16T10:03:06.882Z,78.17
2023-04-16T10:05:35.583Z,77.84
2023-04-16T10:08:04.029Z,78.14
2023-04-16T10:10:35.380Z,77.89
2023-04-16T10:13:03.439Z,77.76
2023-04-16T10:15:33.378Z,77.43
2023-04-16T10:18:01.787Z,77.13
2023-04-16T10:20:30.550Z,76.99
2023-04-16T10:22:59.757Z,76.17
2023-04-16T10:25:28.982Z,76.25
2023-04-16T10:28:00.701Z,76.65
2023-04-16T10:30:29.312Z,76.17
2023-04-16T10:33:00.692Z,76.70
2023-04-16T10:35:28.955Z,77.95
2023-04-16T10:37:58.523Z,77.85
2023-04-16T10:40:29.421Z,77.47
2023-04-16T10:42:59.009Z,77.56
2023-04-16T10:45:41.078Z,77.73
2023-04-16T10:48:11.733Z,77.92
2023-04-16T10:50:41.373Z,77.35
2023-04-16T10:53:21.188Z,77.14
2023-04-16T10:56:15.557Z,77.26
2023-04-16T10:58:43.891Z,78.22
2023-04-16T11:01:16.867Z,78.16
2023-04-16T11:03:49.809Z,78.52
2023-04-16T11:06:26.185Z,77.34
2023-04-16T11:08:56.962Z,77.38
2023-04-16T11:11:25.182Z,77.09
2023-04-16T11:13:57.766Z,77.09
2023-04-16T11:16:28.490Z,76.79
2023-04-16T11:18:58.319Z,76.68
2023-04-16T11:21:32.157Z,76.55
2023-04-16T11:24:00.322Z,76.24
2023-04-16T11:26:30.690Z,75.38
2023-04-16T11:29:00.242Z,74.86
2023-04-16T11:31:28.443Z,74.96
2023-04-16T11:34:00.179Z,74.76
2023-04-16T11:36:28.469Z,75.21
2023-04-16T11:39:04.519Z,76.03
2023-04-16T11:41:32.645Z,77.72
2023-04-16T11:44:00.874Z,77.51
2023-04-16T11:46:40.749Z,76.89
2023-04-16T11:49:10.679Z,77.23
2023-04-16T11:51:42.455Z,77.19
2023-04-16T11:54:12.213Z,76.88
2023-04-16T11:56:46.587Z,77.53
2023-04-16T11:59:17.859Z,76.33
2023-04-16T12:01:49.624Z,76.00
2023-04-16T12:04:22.265Z,75.12
2023-04-16T12:07:10.562Z,75.65
2023-04-16T12:09:40.924Z,75.18
2023-04-16T12:12:27.360Z,75.06
2023-04-16T12:14:56.757Z,74.85
2023-04-16T12:17:25.544Z,74.84
2023-04-16T12:20:00.897Z,74.86
2023-04-16T12:22:31.048Z,74.88
2023-04-16T12:25:04.164Z,74.65
2023-04-16T12:27:53.289Z,74.29
2023-04-16T12:30:24.379Z,73.71
2023-04-16T12:32:57.333Z,72.53
2023-04-16T12:35:35.644Z,73.36
2023-04-16T12:38:04.485Z,73.02
2023-04-16T12:40:32.629Z,73.09
2023-04-16T12:43:00.976Z,73.09
2023-04-16T12:45:29.806Z,72.73
2023-04-16T12:47:58.014Z,74.19
2023-04-16T12:50:26.289Z,74.75
2023-04-16T12:52:57.148Z,75.86
2023-04-16T12:55:25.451Z,75.76
2023-04-16T12:57:53.966Z,75.90
2023-04-16T13:00:23.091Z,76.06
2023-04-16T13:02:51.462Z,76.67
2023-04-16T13:05:19.746Z,76.14
2023-04-16T13:07:47.943Z,76.78
2023-04-16T13:10:17.658Z,76.34
2023-04-16T13:12:46.598Z,75.68
2023-04-16T13:15:17.647Z,74.49
2023-04-16T13:17:46.665Z,74.46
2023-04-16T13:20:15.060Z,73.96
2023-04-16T13:22:43.344Z,73.69
2023-04-16T13:25:11.713Z,72.82
2023-04-16T13:27:41.565Z,71.40
2023-04-16T13:30:10.647Z,70.59
2023-04-16T13:32:38.814Z,70.63
2023-04-16T13:35:07.886Z,70.36
2023-04-16T13:37:36.204Z,70.81
2023-04-16T13:40:04.509Z,71.64
2023-04-16T13:42:35.190Z,72.43
2023-04-16T13:45:04.988Z,73.58
2023-04-16T13:47:33.197Z,72.92
2023-04-16T13:50:01.381Z,71.84
2023-04-16T13:52:29.636Z,72.55
2023-04-16T13:54:58.954Z,71.81
2023-04-16T13:57:28.976Z,71.04
2023-04-16T13:59:57.466Z,70.55
2023-04-16T14:02:27.362Z,69.99
2023-04-16T14:04:55.591Z,68.54
2023-04-16T14:07:27.049Z,68.24
2023-04-16T14:09:55.472Z,68.01
2023-04-16T14:12:23.674Z,68.03
2023-04-16T14:14:51.847Z,67.92
2023-04-16T14:17:20.087Z,68.86
2023-04-16T14:19:49.617Z,68.13
2023-04-16T14:22:18.348Z,68.65
2023-04-16T14:24:46.456Z,68.80
2023-04-16T14:27:14.964Z,70.54
2023-04-16T14:29:43.711Z,71.22
2023-04-16T14:32:11.924Z,71.03
2023-04-16T14:34:40.114Z,71.24
2023-04-16T14:37:09.684Z,71.70
2023-04-16T14:39:39.092Z,71.89
2023-04-16T14:42:07.677Z,72.67
2023-04-16T14:44:36.104Z,72.64
2023-04-16T14:47:04.409Z,72.00
2023-04-16T14:49:32.808Z,70.99
2023-04-16T14:52:02.187Z,70.68
2023-04-16T14:54:32.582Z,70.94
2023-04-16T14:57:02.086Z,71.34
2023-04-16T14:59:31.045Z,71.94
2023-04-16T15:01:59.790Z,72.77
2023-04-16T15:04:28.472Z,72.88
2023-04-16T15:06:59.178Z,72.92
2023-04-16T15:09:28.045Z,72.53
2023-04-16T15:11:58.117Z,72.84
2023-04-16T15:14:26.358Z,73.18
2023-04-16T15:16:54.910Z,73.30
2023-04-16T15:19:23.582Z,72.54
2023-04-16T15:21:51.688Z,71.63
2023-04-16T15:24:19.926Z,71.60
2023-04-16T15:26:48.114Z,71.93
2023-04-16T15:29:17.991Z,72.03
2023-04-16T15:31:46.113Z,72.17
2023-04-16T15:34:14.263Z,72.25
2023-04-16T15:36:43.500Z,71.68
2023-04-16T15:39:11.940Z,71.67
2023-04-16T15:41:57.092Z,71.55
2023-04-16T15:44:31.093Z,71.08
2023-04-16T15:47:00.216Z,72.23
2023-04-16T15:49:28.503Z,72.33
2023-04-16T15:51:57.011Z,72.03
2023-04-16T15:54:25.379Z,72.12
2023-04-16T15:56:53.615Z,71.40
2023-04-16T15:59:22.011Z,71.05
2023-04-16T16:01:51.714Z,71.63
2023-04-16T16:04:22.684Z,71.67
2023-04-16T16:06:51.712Z,71.29
2023-04-16T16:09:25.653Z,70.72
2023-04-16T16:11:54.678Z,70.67
2023-04-16T16:14:23.524Z,70.83
2023-04-16T16:16:53.629Z,71.52
2023-04-16T16:19:21.824Z,72.13
2023-04-16T16:21:49.891Z,72.68
2023-04-16T16:24:18.487Z,72.38
2023-04-16T16:26:46.645Z,71.71
2023-04-16T16:29:14.783Z,71.93
2023-04-16T16:31:43.095Z,71.56
2023-04-16T16:34:19.926Z,71.21
2023-04-16T16:36:49.241Z,70.82
2023-04-16T16:39:17.360Z,71.69
2023-04-16T16:41:45.717Z,71.36
2023-04-16T16:44:13.838Z,71.83
2023-04-16T16:46:42.237Z,72.04
2023-04-16T16:49:18.393Z,71.92
2023-04-16T16:51:47.298Z,71.61
2023-04-16T16:54:16.069Z,71.57
2023-04-16T16:56:44.221Z,71.40
2023-04-16T16:59:12.611Z,71.77
2023-04-16T17:01:41.184Z,72.17
2023-04-16T17:04:09.328Z,72.03
2023-04-16T17:06:40.019Z,71.96
2023-04-16T17:09:08.386Z,71.79
2023-04-16T17:11:36.797Z,71.01
2023-04-16T17:14:05.066Z,71.56
2023-04-16T17:16:33.459Z,71.90
2023-04-16T17:19:01.679Z,71.76
2023-04-16T17:21:29.825Z,71.75
2023-04-16T17:23:59.319Z,73.06
2023-04-16T17:26:27.464Z,73.62
2023-04-16T17:28:58.055Z,73.36
2023-04-16T17:31:27.335Z,73.60
2023-04-16T17:33:55.637Z,74.08
2023-04-16T17:36:23.893Z,73.08
2023-04-16T17:38:52.161Z,74.00
2023-04-16T17:41:21.645Z,73.35
2023-04-16T17:43:51.357Z,72.96
2023-04-16T17:46:19.529Z,72.53
2023-04-16T17:48:48.804Z,72.62
2023-04-16T17:51:17.140Z,72.58
2023-04-16T17:53:45.382Z,73.22
2023-04-16T17:56:14.521Z,73.54
2023-04-16T17:58:44.080Z,73.50
2023-04-16T18:01:12.409Z,74.76
2023-04-16T18:03:42.107Z,75.19
2023-04-16T18:06:10.387Z,74.99
2023-04-16T18:08:38.638Z,74.80
2023-04-16T18:11:09.089Z,75.29
2023-04-16T18:13:37.277Z,75.31
2023-04-16T18:16:09.519Z,75.19
2023-04-16T18:18:37.672Z,75.58
2023-04-16T18:21:06.001Z,75.13
2023-04-16T18:23:34.130Z,74.99
2023-04-16T18:26:02.655Z,75.48
2023-04-16T18:28:30.882Z,76.00
2023-04-16T18:31:03.876Z,75.53
2023-04-16T18:33:54.041Z,75.58
2023-04-16T18:36:22.123Z,75.07
2023-04-16T18:39:01.031Z,74.67
2023-04-16T18:41:30.831Z,75.00
2023-04-16T18:43:59.164Z,75.06
2023-04-16T18:46:27.902Z,74.85
2023-04-16T18:48:58.945Z,74.89
2023-04-16T18:51:27.361Z,74.66
2023-04-16T18:53:55.586Z,74.68
2023-04-16T18:56:23.835Z,74.64
2023-04-16T18:58:52.099Z,74.33
2023-04-16T19:01:20.658Z,74.25
2023-04-16T19:03:51.791Z,74.75
2023-04-16T19:06:21.342Z,75.14
2023-04-16T19:08:49.577Z,75.05
2023-04-16T19:11:17.710Z,74.48
2023-04-16T19:13:46.207Z,75.68
2023-04-16T19:16:14.800Z,75.20
2023-04-16T19:18:44.873Z,75.68
2023-04-16T19:21:12.977Z,75.62
2023-04-16T19:23:42.686Z,75.23
2023-04-16T19:26:10.941Z,75.53
2023-04-16T19:28:39.968Z,76.05
2023-04-16T19:31:08.179Z,75.87
2023-04-16T19:33:36.690Z,76.53
2023-04-16T19:36:05.457Z,76.21
2023-04-16T19:38:33.775Z,75.78
2023-04-16T19:41:03.268Z,76.62
2023-04-16T19:43:32.132Z,77.16
2023-04-16T19:46:00.367Z,75.80
2023-04-16T19:48:28.948Z,75.95
2023-04-16T19:50:57.249Z,76.29
2023-04-16T19:53:25.608Z,77.07
2023-04-16T19:55:53.743Z,77.06
2023-04-16T19:58:23.182Z,77.01
2023-04-16T20:00:51.510Z,77.06
2023-04-16T20:03:19.840Z,76.92
2023-04-16T20:05:50.537Z,77.44
2023-04-16T20:08:18.659Z,77.60
2023-04-16T20:10:46.758Z,76.81
2023-04-16T20:13:17.325Z,77.01
2023-04-16T20:15:48.168Z,77.39
2023-04-16T20:18:16.378Z,77.83
2023-04-16T20:20:44.517Z,77.90
2023-04-16T20:23:13.464Z,78.77
2023-04-16T20:25:43.209Z,78.80
2023-04-16T20:28:11.354Z,79.21
2023-04-16T20:30:39.839Z,78.56
2023-04-16T20:33:10.487Z,77.86
2023-04-16T20:35:38.605Z,77.78
2023-04-16T20:38:06.675Z,77.53
2023-04-16T20:40:38.695Z,78.04
2023-04-16T20:43:10.015Z,77.95
2023-04-16T20:45:41.103Z,77.05
2023-04-16T20:48:11.882Z,78.19
2023-04-16T20:50:40.112Z,78.26
2023-04-16T20:53:08.256Z,78.30
2023-04-16T20:55:36.388Z,78.36
2023-04-16T20:58:04.533Z,78.23
2023-04-16T21:00:33.031Z,78.21
2023-04-16T21:03:01.647Z,77.98
2023-04-16T21:05:33.322Z,78.93
2023-04-16T21:08:01.437Z,78.35
2023-04-16T21:10:29.528Z,78.66
2023-04-16T21:12:57.592Z,79.07
2023-04-16T21:15:25.735Z,78.07
2023-04-16T21:17:53.935Z,78.22
2023-04-16T21:20:22.293Z,78.54
2023-04-16T21:22:56.687Z,78.14
2023-04-16T21:25:24.994Z,78.29
2023-04-16T21:27:53.240Z,77.64
2023-04-16T21:30:21.500Z,78.00
2023-04-16T21:32:49.897Z,78.05
2023-04-16T21:35:18.328Z,77.49
2023-04-16T21:37:46.517Z,77.89
2023-04-16T21:40:16.225Z,77.62
2023-04-16T21:42:45.906Z,77.77
2023-04-16T21:45:14.495Z,78.16
2023-04-16T21:47:42.585Z,78.07
2023-04-16T21:50:12.004Z,77.93
2023-04-16T21:52:46.075Z,78.42
2023-04-16T21:55:15.622Z,78.17
2023-04-16T21:57:43.697Z,77.72
2023-04-16T22:00:14.086Z,77.50
2023-04-16T22:02:43.339Z,77.71
2023-04-16T22:05:12.551Z,77.61
2023-04-16T22:07:40.684Z,77.37
2023-04-16T22:10:11.065Z,76.89
2023-04-16T22:12:42.062Z,77.60
2023-04-16T22:15:11.545Z,77.05
2023-04-16T22:17:40.369Z,77.47
2023-04-16T22:20:12.563Z,77.45
2023-04-16T22:22:40.946Z,77.23
2023-04-16T22:25:09.943Z,77.59
2023-04-16T22:27:38.776Z,78.25
2023-04-16T22:30:10.019Z,78.47
2023-04-16T22:32:38.214Z,78.69
2023-04-16T22:35:07.167Z,77.94
2023-04-16T22:37:35.228Z,77.73
2023-04-16T22:40:07.007Z,77.73
2023-04-16T22:42:35.134Z,77.84
2023-04-16T22:45:03.339Z,77.56
2023-04-16T22:47:32.910Z,77.64
2023-04-16T22:50:01.170Z,77.41
2023-04-16T22:52:29.253Z,77.81
2023-04-16T22:54:57.373Z,77.07
2023-04-16T22:57:26.182Z,76.30
2023-04-16T22:59:54.259Z,77.26
2023-04-16T23:02:22.774Z,77.49
2023-04-16T23:04:52.252Z,78.08
2023-04-16T23:07:20.308Z,77.12
2023-04-16T23:09:48.515Z,77.17
2023-04-16T23:12:16.709Z,76.42
2023-04-16T23:14:46.019Z,76.60
2023-04-16T23:17:14.662Z,76.46
2023-04-16T23:19:46.666Z,76.93
2023-04-16T23:22:16.125Z,76.92
2023-04-16T23:24:44.288Z,77.39
2023-04-16T23:27:12.418Z,76.91
2023-04-16T23:29:45.295Z,77.71
2023-04-16T23:32:13.476Z,78.16
2023-04-16T23:34:42.040Z,77.81
2023-04-16T23:37:10.360Z,78.08
2023-04-16T23:39:39.931Z,78.89
2023-04-16T23:42:08.141Z,78.44
2023-04-16T23:44:36.317Z,79.06
2023-04-16T23:47:04.508Z,78.63
2023-04-16T23:49:33.819Z,78.18
2023-04-16T23:52:01.910Z,77.74
2023-04-16T23:54:30.044Z,78.01
2023-04-16T23:56:59.434Z,78.08
2023-04-16T23:59:27.597Z,78.01
